sensor_id;sensor_type;location;lat;lon;timestamp;P1;durP1;ratioP1;P2;durP2;ratioP2
77350;SDS011;66420;50.246;14.320;2023-02-21T00:00:32;5.10;;;2.20;;
77350;SDS011;66420;50.246;14.320;2023-02-21T00:03:36;4.03;;;1.73;;
77350;SDS011;66420;50.246;14.320;2023-02-21T00:06:39;4.97;;;1.88;;
77350;SDS011;66420;50.246;14.320;2023-02-21T00:09:46;6.55;;;2.20;;
77350;SDS011;66420;50.246;14.320;2023-02-21T00:12:50;6.47;;;2.20;;
77350;SDS011;66420;50.246;14.320;2023-02-21T00:15:53;7.45;;;2.22;;
77350;SDS011;66420;50.246;14.320;2023-02-21T00:18:57;5.90;;;2.25;;
77350;SDS011;66420;50.246;14.320;2023-02-21T00:22:00;4.45;;;2.08;;
77350;SDS011;66420;50.246;14.320;2023-02-21T00:25:03;7.00;;;2.00;;
77350;SDS011;66420;50.246;14.320;2023-02-21T00:28:07;7.35;;;2.33;;
77350;SDS011;66420;50.246;14.320;2023-02-21T00:31:10;8.13;;;2.17;;
77350;SDS011;66420;50.246;14.320;2023-02-21T00:34:14;6.63;;;2.20;;
77350;SDS011;66420;50.246;14.320;2023-02-21T00:37:17;4.75;;;2.03;;
77350;SDS011;66420;50.246;14.320;2023-02-21T00:40:20;7.32;;;2.20;;
77350;SDS011;66420;50.246;14.320;2023-02-21T00:43:28;4.78;;;2.00;;
77350;SDS011;66420;50.246;14.320;2023-02-21T00:46:32;5.38;;;2.08;;
77350;SDS011;66420;50.246;14.320;2023-02-21T00:49:35;5.97;;;2.00;;
77350;SDS011;66420;50.246;14.320;2023-02-21T00:52:39;4.35;;;1.90;;
77350;SDS011;66420;50.246;14.320;2023-02-21T00:55:42;4.80;;;2.00;;
77350;SDS011;66420;50.246;14.320;2023-02-21T00:58:45;4.07;;;2.00;;
77350;SDS011;66420;50.246;14.320;2023-02-21T01:01:49;4.75;;;2.15;;
77350;SDS011;66420;50.246;14.320;2023-02-21T01:04:52;5.50;;;2.22;;
77350;SDS011;66420;50.246;14.320;2023-02-21T01:07:56;4.65;;;1.98;;
77350;SDS011;66420;50.246;14.320;2023-02-21T01:11:00;5.95;;;2.22;;
77350;SDS011;66420;50.246;14.320;2023-02-21T01:14:03;4.65;;;1.90;;
77350;SDS011;66420;50.246;14.320;2023-02-21T01:17:07;4.35;;;1.90;;
77350;SDS011;66420;50.246;14.320;2023-02-21T01:20:10;5.53;;;1.90;;
77350;SDS011;66420;50.246;14.320;2023-02-21T01:23:14;6.88;;;2.03;;
77350;SDS011;66420;50.246;14.320;2023-02-21T01:26:17;4.82;;;1.85;;
77350;SDS011;66420;50.246;14.320;2023-02-21T01:29:20;5.38;;;2.10;;
77350;SDS011;66420;50.246;14.320;2023-02-21T01:32:23;4.60;;;1.90;;
77350;SDS011;66420;50.246;14.320;2023-02-21T01:35:27;5.82;;;2.00;;
77350;SDS011;66420;50.246;14.320;2023-02-21T01:38:32;5.63;;;1.98;;
77350;SDS011;66420;50.246;14.320;2023-02-21T01:41:38;5.30;;;2.15;;
77350;SDS011;66420;50.246;14.320;2023-02-21T01:44:46;4.80;;;1.90;;
77350;SDS011;66420;50.246;14.320;2023-02-21T01:47:50;6.32;;;2.20;;
77350;SDS011;66420;50.246;14.320;2023-02-21T01:50:54;8.38;;;2.00;;
77350;SDS011;66420;50.246;14.320;2023-02-21T01:54:00;4.70;;;1.90;;
77350;SDS011;66420;50.246;14.320;2023-02-21T01:57:04;5.93;;;2.10;;
77350;SDS011;66420;50.246;14.320;2023-02-21T02:00:10;4.65;;;2.00;;
77350;SDS011;66420;50.246;14.320;2023-02-21T02:03:15;6.07;;;2.35;;
77350;SDS011;66420;50.246;14.320;2023-02-21T02:06:21;4.45;;;2.17;;
77350;SDS011;66420;50.246;14.320;2023-02-21T02:09:24;6.40;;;2.38;;
77350;SDS011;66420;50.246;14.320;2023-02-21T02:25:17;4.47;;;2.05;;
77350;SDS011;66420;50.246;14.320;2023-02-21T02:37:53;5.57;;;2.15;;
77350;SDS011;66420;50.246;14.320;2023-02-21T02:43:30;6.15;;;2.40;;
77350;SDS011;66420;50.246;14.320;2023-02-21T02:46:27;3.85;;;1.70;;
77350;SDS011;66420;50.246;14.320;2023-02-21T02:49:21;5.70;;;2.35;;
77350;SDS011;66420;50.246;14.320;2023-02-21T02:52:10;4.72;;;2.20;;
77350;SDS011;66420;50.246;14.320;2023-02-21T02:55:18;4.55;;;2.20;;
77350;SDS011;66420;50.246;14.320;2023-02-21T02:58:11;6.10;;;2.35;;
77350;SDS011;66420;50.246;14.320;2023-02-21T03:01:03;6.78;;;2.40;;
77350;SDS011;66420;50.246;14.320;2023-02-21T03:03:55;5.03;;;2.50;;
77350;SDS011;66420;50.246;14.320;2023-02-21T03:07:00;5.60;;;2.30;;
77350;SDS011;66420;50.246;14.320;2023-02-21T03:10:10;6.47;;;2.58;;
77350;SDS011;66420;50.246;14.320;2023-02-21T03:13:17;5.57;;;2.42;;
77350;SDS011;66420;50.246;14.320;2023-02-21T03:16:14;7.25;;;2.40;;
77350;SDS011;66420;50.246;14.320;2023-02-21T03:19:08;4.85;;;2.25;;
77350;SDS011;66420;50.246;14.320;2023-02-21T03:22:06;6.05;;;2.78;;
77350;SDS011;66420;50.246;14.320;2023-02-21T03:24:54;7.30;;;2.30;;
77350;SDS011;66420;50.246;14.320;2023-02-21T03:27:39;7.15;;;2.63;;
77350;SDS011;66420;50.246;14.320;2023-02-21T03:30:27;6.32;;;2.10;;
77350;SDS011;66420;50.246;14.320;2023-02-21T03:33:13;5.82;;;2.28;;
77350;SDS011;66420;50.246;14.320;2023-02-21T03:35:58;5.63;;;2.00;;
77350;SDS011;66420;50.246;14.320;2023-02-21T03:38:44;4.70;;;2.20;;
77350;SDS011;66420;50.246;14.320;2023-02-21T03:41:28;7.72;;;2.25;;
77350;SDS011;66420;50.246;14.320;2023-02-21T03:44:13;4.32;;;1.85;;
77350;SDS011;66420;50.246;14.320;2023-02-21T03:46:58;5.13;;;1.80;;
77350;SDS011;66420;50.246;14.320;2023-02-21T03:49:42;6.13;;;2.30;;
77350;SDS011;66420;50.246;14.320;2023-02-21T03:52:27;7.22;;;2.20;;
77350;SDS011;66420;50.246;14.320;2023-02-21T03:55:12;4.40;;;1.98;;
77350;SDS011;66420;50.246;14.320;2023-02-21T03:57:59;7.35;;;2.22;;
77350;SDS011;66420;50.246;14.320;2023-02-21T04:00:44;6.03;;;2.42;;
77350;SDS011;66420;50.246;14.320;2023-02-21T04:03:28;5.63;;;2.60;;
77350;SDS011;66420;50.246;14.320;2023-02-21T04:06:13;6.55;;;2.03;;
77350;SDS011;66420;50.246;14.320;2023-02-21T04:08:57;6.20;;;2.40;;
77350;SDS011;66420;50.246;14.320;2023-02-21T04:11:45;5.25;;;2.10;;
77350;SDS011;66420;50.246;14.320;2023-02-21T04:14:29;4.68;;;2.30;;
77350;SDS011;66420;50.246;14.320;2023-02-21T04:17:14;4.00;;;2.28;;
77350;SDS011;66420;50.246;14.320;2023-02-21T04:19:59;5.28;;;2.17;;
77350;SDS011;66420;50.246;14.320;2023-02-21T04:22:43;5.55;;;2.40;;
77350;SDS011;66420;50.246;14.320;2023-02-21T04:25:28;5.50;;;2.00;;
77350;SDS011;66420;50.246;14.320;2023-02-21T04:28:12;4.47;;;1.88;;
77350;SDS011;66420;50.246;14.320;2023-02-21T04:30:57;5.97;;;2.20;;
77350;SDS011;66420;50.246;14.320;2023-02-21T04:33:42;4.03;;;1.98;;
77350;SDS011;66420;50.246;14.320;2023-02-21T04:36:27;3.45;;;1.83;;
77350;SDS011;66420;50.246;14.320;2023-02-21T04:39:11;5.00;;;1.90;;
77350;SDS011;66420;50.246;14.320;2023-02-21T04:42:00;3.75;;;1.70;;
77350;SDS011;66420;50.246;14.320;2023-02-21T04:44:44;3.63;;;1.70;;
77350;SDS011;66420;50.246;14.320;2023-02-21T04:47:29;7.13;;;2.03;;
77350;SDS011;66420;50.246;14.320;2023-02-21T04:50:14;3.13;;;1.55;;
77350;SDS011;66420;50.246;14.320;2023-02-21T04:52:59;4.75;;;1.70;;
77350;SDS011;66420;50.246;14.320;2023-02-21T04:55:43;3.13;;;1.52;;
77350;SDS011;66420;50.246;14.320;2023-02-21T04:58:28;3.70;;;1.67;;
77350;SDS011;66420;50.246;14.320;2023-02-21T05:01:13;5.47;;;1.70;;
77350;SDS011;66420;50.246;14.320;2023-02-21T05:03:59;8.65;;;1.73;;
77350;SDS011;66420;50.246;14.320;2023-02-21T05:06:44;3.92;;;1.48;;
77350;SDS011;66420;50.246;14.320;2023-02-21T05:09:29;4.45;;;1.50;;
77350;SDS011;66420;50.246;14.320;2023-02-21T05:12:14;3.85;;;1.45;;
77350;SDS011;66420;50.246;14.320;2023-02-21T05:14:58;3.33;;;1.50;;
77350;SDS011;66420;50.246;14.320;2023-02-21T05:17:43;2.75;;;1.35;;
77350;SDS011;66420;50.246;14.320;2023-02-21T05:20:29;3.15;;;1.30;;
77350;SDS011;66420;50.246;14.320;2023-02-21T05:23:13;3.67;;;1.48;;
77350;SDS011;66420;50.246;14.320;2023-02-21T05:26:01;2.85;;;1.45;;
77350;SDS011;66420;50.246;14.320;2023-02-21T05:28:47;3.42;;;1.63;;
77350;SDS011;66420;50.246;14.320;2023-02-21T05:31:32;2.72;;;1.20;;
77350;SDS011;66420;50.246;14.320;2023-02-21T05:34:17;4.80;;;1.48;;
77350;SDS011;66420;50.246;14.320;2023-02-21T05:37:02;3.38;;;1.23;;
77350;SDS011;66420;50.246;14.320;2023-02-21T05:39:47;5.82;;;2.25;;
77350;SDS011;66420;50.246;14.320;2023-02-21T05:42:32;2.85;;;1.42;;
77350;SDS011;66420;50.246;14.320;2023-02-21T05:45:17;3.42;;;1.48;;
77350;SDS011;66420;50.246;14.320;2023-02-21T05:48:01;3.38;;;1.42;;
77350;SDS011;66420;50.246;14.320;2023-02-21T05:50:47;3.10;;;1.40;;
77350;SDS011;66420;50.246;14.320;2023-02-21T05:53:31;3.10;;;1.33;;
77350;SDS011;66420;50.246;14.320;2023-02-21T05:56:16;2.40;;;1.35;;
77350;SDS011;66420;50.246;14.320;2023-02-21T05:59:02;3.13;;;1.27;;
77350;SDS011;66420;50.246;14.320;2023-02-21T06:01:46;3.00;;;1.40;;
77350;SDS011;66420;50.246;14.320;2023-02-21T06:04:32;3.30;;;1.17;;
77350;SDS011;66420;50.246;14.320;2023-02-21T06:07:17;3.58;;;1.40;;
77350;SDS011;66420;50.246;14.320;2023-02-21T06:10:02;3.83;;;1.17;;
77350;SDS011;66420;50.246;14.320;2023-02-21T06:12:48;2.90;;;1.30;;
77350;SDS011;66420;50.246;14.320;2023-02-21T06:15:33;6.07;;;1.50;;
77350;SDS011;66420;50.246;14.320;2023-02-21T06:18:17;3.00;;;1.42;;
77350;SDS011;66420;50.246;14.320;2023-02-21T06:21:02;2.55;;;1.33;;
77350;SDS011;66420;50.246;14.320;2023-02-21T06:23:47;2.67;;;1.50;;
77350;SDS011;66420;50.246;14.320;2023-02-21T06:26:32;4.13;;;1.30;;
77350;SDS011;66420;50.246;14.320;2023-02-21T06:29:16;3.97;;;1.33;;
77350;SDS011;66420;50.246;14.320;2023-02-21T06:32:01;5.20;;;1.50;;
77350;SDS011;66420;50.246;14.320;2023-02-21T06:34:45;2.97;;;1.27;;
77350;SDS011;66420;50.246;14.320;2023-02-21T06:37:30;3.42;;;1.50;;
77350;SDS011;66420;50.246;14.320;2023-02-21T06:40:15;5.10;;;1.80;;
77350;SDS011;66420;50.246;14.320;2023-02-21T06:42:59;2.83;;;1.40;;
77350;SDS011;66420;50.246;14.320;2023-02-21T06:45:44;5.05;;;1.42;;
77350;SDS011;66420;50.246;14.320;2023-02-21T06:48:28;6.75;;;1.60;;
77350;SDS011;66420;50.246;14.320;2023-02-21T06:51:14;3.33;;;1.20;;
77350;SDS011;66420;50.246;14.320;2023-02-21T06:53:59;3.20;;;1.30;;
77350;SDS011;66420;50.246;14.320;2023-02-21T06:56:47;3.30;;;1.52;;
77350;SDS011;66420;50.246;14.320;2023-02-21T06:59:31;2.22;;;1.25;;
77350;SDS011;66420;50.246;14.320;2023-02-21T07:02:17;3.17;;;1.30;;
77350;SDS011;66420;50.246;14.320;2023-02-21T07:05:03;3.85;;;1.50;;
77350;SDS011;66420;50.246;14.320;2023-02-21T07:07:48;3.20;;;1.35;;
77350;SDS011;66420;50.246;14.320;2023-02-21T07:10:33;3.83;;;1.40;;
77350;SDS011;66420;50.246;14.320;2023-02-21T07:13:17;3.25;;;1.60;;
77350;SDS011;66420;50.246;14.320;2023-02-21T07:16:02;2.38;;;1.30;;
77350;SDS011;66420;50.246;14.320;2023-02-21T07:18:47;4.85;;;1.50;;
77350;SDS011;66420;50.246;14.320;2023-02-21T07:21:32;5.88;;;1.30;;
77350;SDS011;66420;50.246;14.320;2023-02-21T07:24:16;3.42;;;1.45;;
77350;SDS011;66420;50.246;14.320;2023-02-21T07:27:01;5.63;;;1.92;;
77350;SDS011;66420;50.246;14.320;2023-02-21T07:29:46;2.65;;;1.38;;
77350;SDS011;66420;50.246;14.320;2023-02-21T07:32:31;3.78;;;1.42;;
77350;SDS011;66420;50.246;14.320;2023-02-21T07:35:16;7.05;;;1.50;;
77350;SDS011;66420;50.246;14.320;2023-02-21T07:38:00;2.90;;;1.55;;
77350;SDS011;66420;50.246;14.320;2023-02-21T07:40:45;2.85;;;1.50;;
77350;SDS011;66420;50.246;14.320;2023-02-21T07:43:30;4.13;;;1.75;;
77350;SDS011;66420;50.246;14.320;2023-02-21T07:46:15;3.70;;;1.58;;
77350;SDS011;66420;50.246;14.320;2023-02-21T07:49:01;5.03;;;2.03;;
77350;SDS011;66420;50.246;14.320;2023-02-21T07:51:45;4.65;;;1.63;;
77350;SDS011;66420;50.246;14.320;2023-02-21T07:54:30;3.78;;;1.40;;
77350;SDS011;66420;50.246;14.320;2023-02-21T07:57:15;5.85;;;2.03;;
77350;SDS011;66420;50.246;14.320;2023-02-21T08:00:00;3.72;;;1.48;;
77350;SDS011;66420;50.246;14.320;2023-02-21T08:02:48;5.30;;;1.60;;
77350;SDS011;66420;50.246;14.320;2023-02-21T08:05:33;3.28;;;1.63;;
77350;SDS011;66420;50.246;14.320;2023-02-21T08:08:17;3.33;;;1.60;;
77350;SDS011;66420;50.246;14.320;2023-02-21T08:11:05;5.35;;;1.92;;
77350;SDS011;66420;50.246;14.320;2023-02-21T08:13:50;5.13;;;1.80;;
77350;SDS011;66420;50.246;14.320;2023-02-21T08:16:34;4.15;;;1.80;;
77350;SDS011;66420;50.246;14.320;2023-02-21T08:19:18;5.03;;;1.80;;
77350;SDS011;66420;50.246;14.320;2023-02-21T08:22:03;4.18;;;1.50;;
77350;SDS011;66420;50.246;14.320;2023-02-21T08:24:48;5.60;;;1.77;;
77350;SDS011;66420;50.246;14.320;2023-02-21T08:27:33;3.55;;;1.75;;
77350;SDS011;66420;50.246;14.320;2023-02-21T08:30:18;3.22;;;1.30;;
77350;SDS011;66420;50.246;14.320;2023-02-21T08:33:03;4.55;;;1.60;;
77350;SDS011;66420;50.246;14.320;2023-02-21T08:35:48;4.47;;;1.80;;
77350;SDS011;66420;50.246;14.320;2023-02-21T08:38:33;4.18;;;1.63;;
77350;SDS011;66420;50.246;14.320;2023-02-21T08:41:17;6.22;;;2.20;;
77350;SDS011;66420;50.246;14.320;2023-02-21T08:44:02;4.35;;;1.92;;
77350;SDS011;66420;50.246;14.320;2023-02-21T08:46:47;4.82;;;2.15;;
77350;SDS011;66420;50.246;14.320;2023-02-21T08:49:32;4.80;;;1.95;;
77350;SDS011;66420;50.246;14.320;2023-02-21T08:52:16;4.65;;;2.22;;
77350;SDS011;66420;50.246;14.320;2023-02-21T08:55:02;4.32;;;1.92;;
77350;SDS011;66420;50.246;14.320;2023-02-21T08:57:48;4.63;;;1.80;;
77350;SDS011;66420;50.246;14.320;2023-02-21T09:00:34;4.35;;;1.90;;
77350;SDS011;66420;50.246;14.320;2023-02-21T09:03:18;7.20;;;2.35;;
77350;SDS011;66420;50.246;14.320;2023-02-21T09:06:03;5.82;;;2.20;;
77350;SDS011;66420;50.246;14.320;2023-02-21T09:08:48;4.70;;;2.17;;
77350;SDS011;66420;50.246;14.320;2023-02-21T09:11:33;3.90;;;1.95;;
77350;SDS011;66420;50.246;14.320;2023-02-21T09:14:17;4.35;;;1.80;;
77350;SDS011;66420;50.246;14.320;2023-02-21T09:17:03;4.85;;;1.98;;
77350;SDS011;66420;50.246;14.320;2023-02-21T09:19:49;7.15;;;2.00;;
77350;SDS011;66420;50.246;14.320;2023-02-21T09:22:33;4.35;;;2.38;;
77350;SDS011;66420;50.246;14.320;2023-02-21T09:25:19;4.60;;;2.13;;
77350;SDS011;66420;50.246;14.320;2023-02-21T09:28:07;4.85;;;2.42;;
77350;SDS011;66420;50.246;14.320;2023-02-21T09:30:51;4.57;;;2.20;;
77350;SDS011;66420;50.246;14.320;2023-02-21T09:33:36;6.60;;;2.97;;
77350;SDS011;66420;50.246;14.320;2023-02-21T09:36:24;3.88;;;2.20;;
77350;SDS011;66420;50.246;14.320;2023-02-21T09:39:08;4.80;;;2.00;;
77350;SDS011;66420;50.246;14.320;2023-02-21T09:41:54;3.92;;;2.30;;
77350;SDS011;66420;50.246;14.320;2023-02-21T09:44:40;6.00;;;2.40;;
77350;SDS011;66420;50.246;14.320;2023-02-21T09:47:32;6.05;;;2.72;;
77350;SDS011;66420;50.246;14.320;2023-02-21T09:50:22;7.05;;;2.50;;
77350;SDS011;66420;50.246;14.320;2023-02-21T09:53:12;4.80;;;2.22;;
77350;SDS011;66420;50.246;14.320;2023-02-21T09:56:06;6.93;;;2.38;;
77350;SDS011;66420;50.246;14.320;2023-02-21T09:58:57;4.43;;;1.92;;
77350;SDS011;66420;50.246;14.320;2023-02-21T10:01:46;4.07;;;2.40;;
77350;SDS011;66420;50.246;14.320;2023-02-21T10:08:08;5.07;;;2.30;;
77350;SDS011;66420;50.246;14.320;2023-02-21T10:11:53;4.07;;;2.10;;
77350;SDS011;66420;50.246;14.320;2023-02-21T10:17:38;5.90;;;2.50;;
77350;SDS011;66420;50.246;14.320;2023-02-21T10:20:50;4.40;;;2.50;;
77350;SDS011;66420;50.246;14.320;2023-02-21T10:23:37;7.82;;;2.40;;
77350;SDS011;66420;50.246;14.320;2023-02-21T10:26:30;5.35;;;2.30;;
77350;SDS011;66420;50.246;14.320;2023-02-21T10:29:22;4.88;;;2.15;;
77350;SDS011;66420;50.246;14.320;2023-02-21T10:32:09;4.00;;;2.25;;
77350;SDS011;66420;50.246;14.320;2023-02-21T10:34:54;4.72;;;2.13;;
77350;SDS011;66420;50.246;14.320;2023-02-21T10:40:32;5.38;;;2.20;;
77350;SDS011;66420;50.246;14.320;2023-02-21T10:46:16;4.45;;;2.20;;
77350;SDS011;66420;50.246;14.320;2023-02-21T10:52:14;3.67;;;1.77;;
77350;SDS011;66420;50.246;14.320;2023-02-21T10:55:02;3.67;;;1.80;;
77350;SDS011;66420;50.246;14.320;2023-02-21T10:57:53;3.60;;;2.05;;
77350;SDS011;66420;50.246;14.320;2023-02-21T11:00:42;4.43;;;2.03;;
77350;SDS011;66420;50.246;14.320;2023-02-21T11:03:31;4.18;;;2.00;;
77350;SDS011;66420;50.246;14.320;2023-02-21T11:10:02;3.85;;;1.80;;
77350;SDS011;66420;50.246;14.320;2023-02-21T11:12:30;3.50;;;1.65;;
77350;SDS011;66420;50.246;14.320;2023-02-21T11:15:17;4.45;;;2.13;;
77350;SDS011;66420;50.246;14.320;2023-02-21T11:21:14;5.32;;;2.28;;
77350;SDS011;66420;50.246;14.320;2023-02-21T11:24:02;4.85;;;1.90;;
77350;SDS011;66420;50.246;14.320;2023-02-21T11:26:50;4.20;;;2.10;;
77350;SDS011;66420;50.246;14.320;2023-02-21T11:29:36;4.80;;;2.22;;
77350;SDS011;66420;50.246;14.320;2023-02-21T11:32:33;4.32;;;2.10;;
77350;SDS011;66420;50.246;14.320;2023-02-21T11:35:29;4.05;;;2.13;;
77350;SDS011;66420;50.246;14.320;2023-02-21T11:44:32;5.40;;;2.28;;
77350;SDS011;66420;50.246;14.320;2023-02-21T11:47:26;5.65;;;2.30;;
77350;SDS011;66420;50.246;14.320;2023-02-21T11:50:22;3.22;;;1.98;;
77350;SDS011;66420;50.246;14.320;2023-02-21T11:59:06;4.60;;;1.80;;
77350;SDS011;66420;50.246;14.320;2023-02-21T12:15:18;4.55;;;1.67;;
77350;SDS011;66420;50.246;14.320;2023-02-21T12:27:42;2.60;;;1.33;;
77350;SDS011;66420;50.246;14.320;2023-02-21T12:51:24;3.28;;;1.40;;
77350;SDS011;66420;50.246;14.320;2023-02-21T12:54:14;2.97;;;1.27;;
77350;SDS011;66420;50.246;14.320;2023-02-21T13:00:33;2.42;;;1.33;;
77350;SDS011;66420;50.246;14.320;2023-02-21T13:07:00;2.88;;;1.30;;
77350;SDS011;66420;50.246;14.320;2023-02-21T13:09:53;1.77;;;1.10;;
77350;SDS011;66420;50.246;14.320;2023-02-21T13:12:44;2.05;;;1.00;;
77350;SDS011;66420;50.246;14.320;2023-02-21T13:18:22;3.47;;;1.10;;
77350;SDS011;66420;50.246;14.320;2023-02-21T13:33:49;3.00;;;1.38;;
77350;SDS011;66420;50.246;14.320;2023-02-21T13:39:29;2.40;;;1.20;;
77350;SDS011;66420;50.246;14.320;2023-02-21T13:42:20;2.47;;;1.30;;
77350;SDS011;66420;50.246;14.320;2023-02-21T13:50:49;2.55;;;1.20;;
77350;SDS011;66420;50.246;14.320;2023-02-21T13:54:02;3.50;;;1.38;;
77350;SDS011;66420;50.246;14.320;2023-02-21T13:56:51;3.92;;;1.15;;
77350;SDS011;66420;50.246;14.320;2023-02-21T13:59:36;3.47;;;1.38;;
77350;SDS011;66420;50.246;14.320;2023-02-21T14:02:27;4.60;;;1.20;;
77350;SDS011;66420;50.246;14.320;2023-02-21T14:05:16;2.88;;;1.40;;
77350;SDS011;66420;50.246;14.320;2023-02-21T14:08:23;3.35;;;1.45;;
77350;SDS011;66420;50.246;14.320;2023-02-21T14:11:24;3.97;;;1.73;;
77350;SDS011;66420;50.246;14.320;2023-02-21T14:17:09;3.47;;;1.40;;
77350;SDS011;66420;50.246;14.320;2023-02-21T14:19:56;3.15;;;1.40;;
77350;SDS011;66420;50.246;14.320;2023-02-21T14:22:43;3.15;;;1.20;;
77350;SDS011;66420;50.246;14.320;2023-02-21T14:25:28;2.55;;;1.30;;
77350;SDS011;66420;50.246;14.320;2023-02-21T14:34:57;2.35;;;1.20;;
77350;SDS011;66420;50.246;14.320;2023-02-21T14:38:19;2.80;;;1.38;;
77350;SDS011;66420;50.246;14.320;2023-02-21T14:47:35;2.42;;;1.10;;
77350;SDS011;66420;50.246;14.320;2023-02-21T15:08:48;3.33;;;1.20;;
77350;SDS011;66420;50.246;14.320;2023-02-21T15:11:34;4.60;;;1.30;;
77350;SDS011;66420;50.246;14.320;2023-02-21T15:14:25;3.90;;;1.45;;
77350;SDS011;66420;50.246;14.320;2023-02-21T15:17:15;2.58;;;1.20;;
77350;SDS011;66420;50.246;14.320;2023-02-21T15:20:06;2.72;;;1.10;;
77350;SDS011;66420;50.246;14.320;2023-02-21T15:23:00;2.53;;;1.20;;
77350;SDS011;66420;50.246;14.320;2023-02-21T15:25:57;3.70;;;1.40;;
77350;SDS011;66420;50.246;14.320;2023-02-21T15:28:44;3.30;;;1.50;;
77350;SDS011;66420;50.246;14.320;2023-02-21T15:31:34;4.20;;;1.73;;
77350;SDS011;66420;50.246;14.320;2023-02-21T15:34:45;2.97;;;1.40;;
77350;SDS011;66420;50.246;14.320;2023-02-21T15:37:42;3.58;;;1.75;;
77350;SDS011;66420;50.246;14.320;2023-02-21T15:40:37;3.60;;;1.63;;
77350;SDS011;66420;50.246;14.320;2023-02-21T15:46:55;6.93;;;2.33;;
77350;SDS011;66420;50.246;14.320;2023-02-21T15:50:04;32.88;;;13.57;;
77350;SDS011;66420;50.246;14.320;2023-02-21T15:52:52;25.17;;;11.35;;
77350;SDS011;66420;50.246;14.320;2023-02-21T15:55:38;37.33;;;15.25;;
77350;SDS011;66420;50.246;14.320;2023-02-21T15:58:25;24.40;;;9.57;;
77350;SDS011;66420;50.246;14.320;2023-02-21T16:01:12;18.45;;;6.53;;
77350;SDS011;66420;50.246;14.320;2023-02-21T16:04:14;11.88;;;3.28;;
77350;SDS011;66420;50.246;14.320;2023-02-21T16:07:01;3.88;;;1.75;;
77350;SDS011;66420;50.246;14.320;2023-02-21T16:09:50;4.68;;;1.50;;
77350;SDS011;66420;50.246;14.320;2023-02-21T16:12:43;4.22;;;1.52;;
77350;SDS011;66420;50.246;14.320;2023-02-21T16:15:32;4.22;;;1.75;;
77350;SDS011;66420;50.246;14.320;2023-02-21T16:18:20;4.70;;;1.70;;
77350;SDS011;66420;50.246;14.320;2023-02-21T16:21:06;4.30;;;1.67;;
77350;SDS011;66420;50.246;14.320;2023-02-21T16:27:14;6.40;;;2.10;;
77350;SDS011;66420;50.246;14.320;2023-02-21T16:30:00;4.70;;;2.05;;
77350;SDS011;66420;50.246;14.320;2023-02-21T16:32:46;4.50;;;2.47;;
77350;SDS011;66420;50.246;14.320;2023-02-21T16:35:32;6.30;;;3.05;;
77350;SDS011;66420;50.246;14.320;2023-02-21T16:38:18;6.28;;;2.60;;
77350;SDS011;66420;50.246;14.320;2023-02-21T16:41:04;4.40;;;2.10;;
77350;SDS011;66420;50.246;14.320;2023-02-21T16:43:49;6.20;;;2.35;;
77350;SDS011;66420;50.246;14.320;2023-02-21T16:46:34;12.80;;;5.88;;
77350;SDS011;66420;50.246;14.320;2023-02-21T16:49:19;8.23;;;4.20;;
77350;SDS011;66420;50.246;14.320;2023-02-21T16:52:04;7.88;;;3.70;;
77350;SDS011;66420;50.246;14.320;2023-02-21T16:54:48;6.93;;;2.60;;
77350;SDS011;66420;50.246;14.320;2023-02-21T16:57:32;6.20;;;2.85;;
77350;SDS011;66420;50.246;14.320;2023-02-21T17:00:18;6.38;;;3.35;;
77350;SDS011;66420;50.246;14.320;2023-02-21T17:03:04;6.28;;;3.15;;
77350;SDS011;66420;50.246;14.320;2023-02-21T17:05:52;7.38;;;3.05;;
77350;SDS011;66420;50.246;14.320;2023-02-21T17:08:36;7.05;;;3.03;;
77350;SDS011;66420;50.246;14.320;2023-02-21T17:11:21;7.85;;;3.95;;
77350;SDS011;66420;50.246;14.320;2023-02-21T17:14:05;17.17;;;5.00;;
77350;SDS011;66420;50.246;14.320;2023-02-21T17:16:50;8.05;;;3.97;;
77350;SDS011;66420;50.246;14.320;2023-02-21T17:19:35;6.60;;;3.50;;
77350;SDS011;66420;50.246;14.320;2023-02-21T17:22:20;7.88;;;3.35;;
77350;SDS011;66420;50.246;14.320;2023-02-21T17:25:05;8.30;;;3.65;;
77350;SDS011;66420;50.246;14.320;2023-02-21T17:27:50;7.10;;;3.70;;
77350;SDS011;66420;50.246;14.320;2023-02-21T17:30:36;8.43;;;4.15;;
77350;SDS011;66420;50.246;14.320;2023-02-21T17:33:20;8.10;;;3.67;;
77350;SDS011;66420;50.246;14.320;2023-02-21T17:36:05;6.95;;;3.78;;
77350;SDS011;66420;50.246;14.320;2023-02-21T17:38:50;9.07;;;4.00;;
77350;SDS011;66420;50.246;14.320;2023-02-21T17:41:35;10.57;;;3.70;;
77350;SDS011;66420;50.246;14.320;2023-02-21T17:44:20;6.57;;;3.50;;
77350;SDS011;66420;50.246;14.320;2023-02-21T17:47:05;6.97;;;3.70;;
77350;SDS011;66420;50.246;14.320;2023-02-21T17:49:51;7.22;;;3.55;;
77350;SDS011;66420;50.246;14.320;2023-02-21T17:52:37;7.55;;;3.50;;
77350;SDS011;66420;50.246;14.320;2023-02-21T17:55:23;7.40;;;3.83;;
77350;SDS011;66420;50.246;14.320;2023-02-21T17:58:09;8.60;;;4.60;;
77350;SDS011;66420;50.246;14.320;2023-02-21T18:00:54;9.90;;;4.50;;
77350;SDS011;66420;50.246;14.320;2023-02-21T18:03:39;11.05;;;4.95;;
77350;SDS011;66420;50.246;14.320;2023-02-21T18:06:24;9.82;;;4.72;;
77350;SDS011;66420;50.246;14.320;2023-02-21T18:09:08;36.30;;;10.65;;
77350;SDS011;66420;50.246;14.320;2023-02-21T18:11:55;274.48;;;62.58;;
77350;SDS011;66420;50.246;14.320;2023-02-21T18:14:41;292.27;;;67.47;;
77350;SDS011;66420;50.246;14.320;2023-02-21T18:17:26;22.52;;;7.80;;
77350;SDS011;66420;50.246;14.320;2023-02-21T18:20:11;22.88;;;8.65;;
77350;SDS011;66420;50.246;14.320;2023-02-21T18:22:57;75.15;;;29.05;;
77350;SDS011;66420;50.246;14.320;2023-02-21T18:25:42;14.68;;;7.70;;
77350;SDS011;66420;50.246;14.320;2023-02-21T18:28:28;10.88;;;6.18;;
77350;SDS011;66420;50.246;14.320;2023-02-21T18:31:14;11.32;;;6.03;;
77350;SDS011;66420;50.246;14.320;2023-02-21T18:34:00;10.15;;;4.35;;
77350;SDS011;66420;50.246;14.320;2023-02-21T18:36:46;12.02;;;5.45;;
77350;SDS011;66420;50.246;14.320;2023-02-21T18:39:32;10.30;;;4.22;;
77350;SDS011;66420;50.246;14.320;2023-02-21T18:42:17;6.38;;;3.45;;
77350;SDS011;66420;50.246;14.320;2023-02-21T18:45:04;8.10;;;3.70;;
77350;SDS011;66420;50.246;14.320;2023-02-21T18:47:49;6.93;;;3.67;;
77350;SDS011;66420;50.246;14.320;2023-02-21T18:50:34;11.25;;;4.15;;
77350;SDS011;66420;50.246;14.320;2023-02-21T18:53:19;7.53;;;3.50;;
77350;SDS011;66420;50.246;14.320;2023-02-21T18:56:09;8.38;;;3.60;;
77350;SDS011;66420;50.246;14.320;2023-02-21T18:58:55;7.63;;;3.58;;
77350;SDS011;66420;50.246;14.320;2023-02-21T19:01:40;7.38;;;3.83;;
77350;SDS011;66420;50.246;14.320;2023-02-21T19:04:25;8.00;;;3.78;;
77350;SDS011;66420;50.246;14.320;2023-02-21T19:07:10;8.55;;;4.10;;
77350;SDS011;66420;50.246;14.320;2023-02-21T19:09:57;7.15;;;3.60;;
77350;SDS011;66420;50.246;14.320;2023-02-21T19:12:41;11.25;;;3.80;;
77350;SDS011;66420;50.246;14.320;2023-02-21T19:15:26;8.73;;;3.35;;
77350;SDS011;66420;50.246;14.320;2023-02-21T19:18:13;6.72;;;3.08;;
77350;SDS011;66420;50.246;14.320;2023-02-21T19:20:58;6.70;;;3.20;;
77350;SDS011;66420;50.246;14.320;2023-02-21T19:23:42;8.65;;;3.13;;
77350;SDS011;66420;50.246;14.320;2023-02-21T19:26:28;10.70;;;3.28;;
77350;SDS011;66420;50.246;14.320;2023-02-21T19:29:13;8.15;;;3.40;;
77350;SDS011;66420;50.246;14.320;2023-02-21T19:31:58;7.45;;;3.08;;
77350;SDS011;66420;50.246;14.320;2023-02-21T19:34:42;7.38;;;3.40;;
77350;SDS011;66420;50.246;14.320;2023-02-21T19:37:27;7.32;;;3.40;;
77350;SDS011;66420;50.246;14.320;2023-02-21T19:40:11;7.20;;;2.90;;